sensor_id;sensor_type;location;lat;lon;timestamp;temperature;humidity
30037;DHT22;36325;51.512;-0.382;2023-02-15T00:00:13;4.90;99.90
30037;DHT22;36325;51.512;-0.382;2023-02-15T00:02:40;5.00;99.90
30037;DHT22;36325;51.512;-0.382;2023-02-15T00:07:37;5.20;99.90
30037;DHT22;36325;51.512;-0.382;2023-02-15T00:10:06;5.20;99.90
30037;DHT22;36325;51.512;-0.382;2023-02-15T00:12:34;5.30;99.90
30037;DHT22;36325;51.512;-0.382;2023-02-15T00:15:03;5.40;99.90
30037;DHT22;36325;51.512;-0.382;2023-02-15T00:17:31;5.40;99.90
30037;DHT22;36325;51.512;-0.382;2023-02-15T00:20:00;5.40;99.90
30037;DHT22;36325;51.512;-0.382;2023-02-15T00:22:28;5.40;99.90
30037;DHT22;36325;51.512;-0.382;2023-02-15T00:24:56;5.40;99.90
30037;DHT22;36325;51.512;-0.382;2023-02-15T00:27:24;5.40;99.90
30037;DHT22;36325;51.512;-0.382;2023-02-15T00:29:52;5.40;99.90
30037;DHT22;36325;51.512;-0.382;2023-02-15T00:32:20;5.30;99.90
30037;DHT22;36325;51.512;-0.382;2023-02-15T00:34:48;5.40;99.90
30037;DHT22;36325;51.512;-0.382;2023-02-15T00:37:16;5.40;99.90
30037;DHT22;36325;51.512;-0.382;2023-02-15T00:39:46;5.50;99.90
30037;DHT22;36325;51.512;-0.382;2023-02-15T00:42:14;5.50;99.90
30037;DHT22;36325;51.512;-0.382;2023-02-15T00:44:41;5.50;99.90
30037;DHT22;36325;51.512;-0.382;2023-02-15T00:47:09;5.30;99.90
30037;DHT22;36325;51.512;-0.382;2023-02-15T00:49:37;5.10;99.90
30037;DHT22;36325;51.512;-0.382;2023-02-15T00:52:05;5.00;99.90
30037;DHT22;36325;51.512;-0.382;2023-02-15T00:57:03;4.70;99.90
30037;DHT22;36325;51.512;-0.382;2023-02-15T00:59:31;4.70;99.90
30037;DHT22;36325;51.512;-0.382;2023-02-15T01:01:59;4.60;99.90
30037;DHT22;36325;51.512;-0.382;2023-02-15T01:04:28;4.60;99.90
30037;DHT22;36325;51.512;-0.382;2023-02-15T01:06:56;4.50;99.90
30037;DHT22;36325;51.512;-0.382;2023-02-15T01:11:55;4.60;99.90
30037;DHT22;36325;51.512;-0.382;2023-02-15T01:14:26;4.60;99.90
30037;DHT22;36325;51.512;-0.382;2023-02-15T01:16:54;4.70;99.90
30037;DHT22;36325;51.512;-0.382;2023-02-15T01:19:21;4.70;99.90
30037;DHT22;36325;51.512;-0.382;2023-02-15T01:21:50;4.70;99.90
30037;DHT22;36325;51.512;-0.382;2023-02-15T01:24:18;4.80;99.90
30037;DHT22;36325;51.512;-0.382;2023-02-15T01:26:46;4.80;99.90
30037;DHT22;36325;51.512;-0.382;2023-02-15T01:29:15;4.90;99.90
30037;DHT22;36325;51.512;-0.382;2023-02-15T01:31:42;5.00;99.90
30037;DHT22;36325;51.512;-0.382;2023-02-15T01:34:14;5.20;99.90
30037;DHT22;36325;51.512;-0.382;2023-02-15T01:36:42;5.30;99.90
30037;DHT22;36325;51.512;-0.382;2023-02-15T01:39:10;5.50;99.90
30037;DHT22;36325;51.512;-0.382;2023-02-15T01:47:34;5.90;99.90
30037;DHT22;36325;51.512;-0.382;2023-02-15T01:50:06;5.90;99.90
30037;DHT22;36325;51.512;-0.382;2023-02-15T01:52:38;6.00;99.90
30037;DHT22;36325;51.512;-0.382;2023-02-15T01:55:08;6.00;99.90
30037;DHT22;36325;51.512;-0.382;2023-02-15T01:57:36;6.00;99.90
30037;DHT22;36325;51.512;-0.382;2023-02-15T02:00:05;6.10;99.90
30037;DHT22;36325;51.512;-0.382;2023-02-15T02:02:39;6.00;99.90
30037;DHT22;36325;51.512;-0.382;2023-02-15T02:05:08;6.10;99.90
30037;DHT22;36325;51.512;-0.382;2023-02-15T02:07:39;6.10;99.90
30037;DHT22;36325;51.512;-0.382;2023-02-15T02:10:11;6.10;99.90
30037;DHT22;36325;51.512;-0.382;2023-02-15T02:12:41;6.20;99.90
30037;DHT22;36325;51.512;-0.382;2023-02-15T02:15:10;6.20;99.90
30037;DHT22;36325;51.512;-0.382;2023-02-15T02:20:59;6.30;99.90
30037;DHT22;36325;51.512;-0.382;2023-02-15T02:37:06;5.90;99.90
30037;DHT22;36325;51.512;-0.382;2023-02-15T02:42:54;5.90;99.90
30037;DHT22;36325;51.512;-0.382;2023-02-15T02:45:50;5.80;99.90
30037;DHT22;36325;51.512;-0.382;2023-02-15T02:48:24;5.70;99.90
30037;DHT22;36325;51.512;-0.382;2023-02-15T02:50:52;5.60;99.90
30037;DHT22;36325;51.512;-0.382;2023-02-15T02:53:20;5.60;99.90
30037;DHT22;36325;51.512;-0.382;2023-02-15T02:58:24;5.40;99.90
30037;DHT22;36325;51.512;-0.382;2023-02-15T03:01:02;5.40;99.90
30037;DHT22;36325;51.512;-0.382;2023-02-15T03:03:53;5.50;99.90
30037;DHT22;36325;51.512;-0.382;2023-02-15T03:06:28;5.50;99.90
30037;DHT22;36325;51.512;-0.382;2023-02-15T03:14:49;5.60;99.90
30037;DHT22;36325;51.512;-0.382;2023-02-15T03:17:21;5.60;99.90
30037;DHT22;36325;51.512;-0.382;2023-02-15T03:19:51;5.60;99.90
30037;DHT22;36325;51.512;-0.382;2023-02-15T03:22:37;5.60;99.90
30037;DHT22;36325;51.512;-0.382;2023-02-15T03:25:33;5.70;99.90
30037;DHT22;36325;51.512;-0.382;2023-02-15T03:28:15;5.70;99.90
30037;DHT22;36325;51.512;-0.382;2023-02-15T03:30:45;5.80;99.90
30037;DHT22;36325;51.512;-0.382;2023-02-15T03:33:16;5.80;99.90
30037;DHT22;36325;51.512;-0.382;2023-02-15T03:38:22;5.80;99.90
30037;DHT22;36325;51.512;-0.382;2023-02-15T03:40:54;5.80;99.90
30037;DHT22;36325;51.512;-0.382;2023-02-15T03:43:56;5.70;99.90
30037;DHT22;36325;51.512;-0.382;2023-02-15T03:49:39;5.60;99.90
30037;DHT22;36325;51.512;-0.382;2023-02-15T03:52:11;5.60;99.90
30037;DHT22;36325;51.512;-0.382;2023-02-15T03:54:41;5.60;99.90
30037;DHT22;36325;51.512;-0.382;2023-02-15T03:57:19;5.50;99.90
30037;DHT22;36325;51.512;-0.382;2023-02-15T04:05:56;5.30;99.90
30037;DHT22;36325;51.512;-0.382;2023-02-15T04:08:23;5.20;99.90
30037;DHT22;36325;51.512;-0.382;2023-02-15T04:11:11;5.20;99.90
30037;DHT22;36325;51.512;-0.382;2023-02-15T04:13:38;5.10;99.90
30037;DHT22;36325;51.512;-0.382;2023-02-15T04:16:08;5.10;99.90
30037;DHT22;36325;51.512;-0.382;2023-02-15T04:18:43;5.10;99.90
30037;DHT22;36325;51.512;-0.382;2023-02-15T04:21:30;5.10;99.90
30037;DHT22;36325;51.512;-0.382;2023-02-15T04:24:17;5.10;99.90
30037;DHT22;36325;51.512;-0.382;2023-02-15T04:27:04;5.10;99.90
30037;DHT22;36325;51.512;-0.382;2023-02-15T04:29:33;5.10;99.90
30037;DHT22;36325;51.512;-0.382;2023-02-15T04:32:01;5.10;99.90
30037;DHT22;36325;51.512;-0.382;2023-02-15T04:34:30;5.00;99.90
30037;DHT22;36325;51.512;-0.382;2023-02-15T04:36:58;5.00;99.90
30037;DHT22;36325;51.512;-0.382;2023-02-15T04:39:25;5.00;99.90
30037;DHT22;36325;51.512;-0.382;2023-02-15T04:41:53;4.90;99.90
30037;DHT22;36325;51.512;-0.382;2023-02-15T04:44:21;4.90;99.90
30037;DHT22;36325;51.512;-0.382;2023-02-15T04:46:48;4.90;99.90
30037;DHT22;36325;51.512;-0.382;2023-02-15T04:49:16;4.90;99.90
30037;DHT22;36325;51.512;-0.382;2023-02-15T04:51:44;5.00;99.90
30037;DHT22;36325;51.512;-0.382;2023-02-15T04:54:11;5.00;99.90
30037;DHT22;36325;51.512;-0.382;2023-02-15T04:56:39;5.10;99.90
30037;DHT22;36325;51.512;-0.382;2023-02-15T04:59:08;5.10;99.90
30037;DHT22;36325;51.512;-0.382;2023-02-15T05:01:37;5.20;99.90
30037;DHT22;36325;51.512;-0.382;2023-02-15T05:04:04;5.20;99.90
30037;DHT22;36325;51.512;-0.382;2023-02-15T05:06:32;5.20;99.90
30037;DHT22;36325;51.512;-0.382;2023-02-15T05:09:00;5.10;99.90
30037;DHT22;36325;51.512;-0.382;2023-02-15T05:11:27;5.10;99.90
30037;DHT22;36325;51.512;-0.382;2023-02-15T05:13:56;5.10;99.90
30037;DHT22;36325;51.512;-0.382;2023-02-15T05:16:25;5.00;99.90
30037;DHT22;36325;51.512;-0.382;2023-02-15T05:18:54;5.00;99.90
30037;DHT22;36325;51.512;-0.382;2023-02-15T05:21:23;4.90;99.90
30037;DHT22;36325;51.512;-0.382;2023-02-15T05:23:56;4.90;99.90
30037;DHT22;36325;51.512;-0.382;2023-02-15T05:26:24;4.80;99.90
30037;DHT22;36325;51.512;-0.382;2023-02-15T05:29:11;4.70;99.90
30037;DHT22;36325;51.512;-0.382;2023-02-15T05:34:06;4.50;99.90
30037;DHT22;36325;51.512;-0.382;2023-02-15T05:36:34;4.40;99.90
30037;DHT22;36325;51.512;-0.382;2023-02-15T05:39:02;4.40;99.90
30037;DHT22;36325;51.512;-0.382;2023-02-15T05:41:31;4.30;99.90
30037;DHT22;36325;51.512;-0.382;2023-02-15T05:43:58;4.30;99.90
30037;DHT22;36325;51.512;-0.382;2023-02-15T05:46:26;4.20;99.90
30037;DHT22;36325;51.512;-0.382;2023-02-15T05:48:53;4.20;99.90
30037;DHT22;36325;51.512;-0.382;2023-02-15T05:51:21;4.20;99.90
30037;DHT22;36325;51.512;-0.382;2023-02-15T05:56:16;4.20;99.90
30037;DHT22;36325;51.512;-0.382;2023-02-15T05:58:43;4.20;99.90
30037;DHT22;36325;51.512;-0.382;2023-02-15T06:01:18;4.20;99.90
30037;DHT22;36325;51.512;-0.382;2023-02-15T06:03:46;4.20;99.90
30037;DHT22;36325;51.512;-0.382;2023-02-15T06:08:43;4.20;99.90
30037;DHT22;36325;51.512;-0.382;2023-02-15T06:11:13;4.10;99.90
30037;DHT22;36325;51.512;-0.382;2023-02-15T06:13:40;4.10;99.90
30037;DHT22;36325;51.512;-0.382;2023-02-15T06:16:08;4.10;99.90
30037;DHT22;36325;51.512;-0.382;2023-02-15T06:18:35;5.30;99.90
30037;DHT22;36325;51.512;-0.382;2023-02-15T06:21:02;4.10;99.90
30037;DHT22;36325;51.512;-0.382;2023-02-15T06:25:58;4.10;99.90
30037;DHT22;36325;51.512;-0.382;2023-02-15T06:28:25;4.00;99.90
30037;DHT22;36325;51.512;-0.382;2023-02-15T06:30:53;4.00;99.90
30037;DHT22;36325;51.512;-0.382;2023-02-15T06:33:20;3.90;99.90
30037;DHT22;36325;51.512;-0.382;2023-02-15T06:35:49;3.90;99.90
30037;DHT22;36325;51.512;-0.382;2023-02-15T06:38:17;3.90;99.90
30037;DHT22;36325;51.512;-0.382;2023-02-15T06:40:44;3.90;99.90
30037;DHT22;36325;51.512;-0.382;2023-02-15T06:43:12;3.90;99.90
30037;DHT22;36325;51.512;-0.382;2023-02-15T06:45:41;3.90;99.90
30037;DHT22;36325;51.512;-0.382;2023-02-15T06:48:08;3.90;99.90
30037;DHT22;36325;51.512;-0.382;2023-02-15T06:50:37;3.90;99.90
30037;DHT22;36325;51.512;-0.382;2023-02-15T06:53:05;3.90;99.90
30037;DHT22;36325;51.512;-0.382;2023-02-15T06:55:32;3.80;99.90
30037;DHT22;36325;51.512;-0.382;2023-02-15T07:00:29;3.40;99.90
30037;DHT22;36325;51.512;-0.382;2023-02-15T07:02:58;3.40;99.90
30037;DHT22;36325;51.512;-0.382;2023-02-15T07:05:26;3.30;99.90
30037;DHT22;36325;51.512;-0.382;2023-02-15T07:07:59;3.30;99.90
30037;DHT22;36325;51.512;-0.382;2023-02-15T07:10:27;3.20;99.90
30037;DHT22;36325;51.512;-0.382;2023-02-15T07:12:55;3.20;99.90
30037;DHT22;36325;51.512;-0.382;2023-02-15T07:15:22;3.20;99.90
30037;DHT22;36325;51.512;-0.382;2023-02-15T07:20:23;3.30;99.90
30037;DHT22;36325;51.512;-0.382;2023-02-15T07:22:51;3.30;99.90
30037;DHT22;36325;51.512;-0.382;2023-02-15T07:25:18;3.40;99.90
30037;DHT22;36325;51.512;-0.382;2023-02-15T07:27:47;3.40;99.90
30037;DHT22;36325;51.512;-0.382;2023-02-15T07:30:16;3.50;99.90
30037;DHT22;36325;51.512;-0.382;2023-02-15T07:35:32;3.60;99.90
30037;DHT22;36325;51.512;-0.382;2023-02-15T07:38:01;3.70;99.90
30037;DHT22;36325;51.512;-0.382;2023-02-15T07:40:28;3.90;99.90
30037;DHT22;36325;51.512;-0.382;2023-02-15T07:42:58;4.20;99.90
30037;DHT22;36325;51.512;-0.382;2023-02-15T07:47:54;4.60;99.90
30037;DHT22;36325;51.512;-0.382;2023-02-15T07:50:21;4.70;99.90
30037;DHT22;36325;51.512;-0.382;2023-02-15T07:52:50;5.00;99.90
30037;DHT22;36325;51.512;-0.382;2023-02-15T07:55:19;4.90;99.90
30037;DHT22;36325;51.512;-0.382;2023-02-15T07:57:51;5.00;99.90
30037;DHT22;36325;51.512;-0.382;2023-02-15T08:00:25;5.20;99.90
30037;DHT22;36325;51.512;-0.382;2023-02-15T08:02:55;5.30;99.90
30037;DHT22;36325;51.512;-0.382;2023-02-15T08:05:44;5.40;99.90
30037;DHT22;36325;51.512;-0.382;2023-02-15T08:08:13;5.40;99.90
30037;DHT22;36325;51.512;-0.382;2023-02-15T08:11:06;5.50;99.90
30037;DHT22;36325;51.512;-0.382;2023-02-15T08:14:07;5.50;99.90
30037;DHT22;36325;51.512;-0.382;2023-02-15T08:16:36;5.60;99.90
30037;DHT22;36325;51.512;-0.382;2023-02-15T08:21:52;5.80;99.90
30037;DHT22;36325;51.512;-0.382;2023-02-15T08:24:22;5.80;99.90
30037;DHT22;36325;51.512;-0.382;2023-02-15T08:26:51;5.90;99.90
30037;DHT22;36325;51.512;-0.382;2023-02-15T08:29:20;5.90;99.90
30037;DHT22;36325;51.512;-0.382;2023-02-15T08:31:55;6.10;99.90
30037;DHT22;36325;51.512;-0.382;2023-02-15T08:34:29;6.20;99.90
30037;DHT22;36325;51.512;-0.382;2023-02-15T08:37:01;6.30;99.90
30037;DHT22;36325;51.512;-0.382;2023-02-15T08:39:29;6.50;99.90
30037;DHT22;36325;51.512;-0.382;2023-02-15T08:41:58;6.80;99.90
30037;DHT22;36325;51.512;-0.382;2023-02-15T08:44:26;7.10;99.90
30037;DHT22;36325;51.512;-0.382;2023-02-15T08:46:56;7.20;99.90
30037;DHT22;36325;51.512;-0.382;2023-02-15T08:49:34;7.40;99.90
30037;DHT22;36325;51.512;-0.382;2023-02-15T08:52:03;7.60;99.90
30037;DHT22;36325;51.512;-0.382;2023-02-15T08:54:31;7.80;99.90
30037;DHT22;36325;51.512;-0.382;2023-02-15T08:56:59;8.20;99.90
30037;DHT22;36325;51.512;-0.382;2023-02-15T08:59:26;8.30;99.90
30037;DHT22;36325;51.512;-0.382;2023-02-15T09:01:55;8.40;99.90
30037;DHT22;36325;51.512;-0.382;2023-02-15T09:04:23;8.60;99.90
30037;DHT22;36325;51.512;-0.382;2023-02-15T09:06:51;9.00;99.90
30037;DHT22;36325;51.512;-0.382;2023-02-15T09:09:20;8.90;99.90
30037;DHT22;36325;51.512;-0.382;2023-02-15T09:11:50;9.10;99.90
30037;DHT22;36325;51.512;-0.382;2023-02-15T09:14:24;9.20;99.90
30037;DHT22;36325;51.512;-0.382;2023-02-15T09:16:55;9.80;99.90
30037;DHT22;36325;51.512;-0.382;2023-02-15T09:19:24;9.80;99.90
30037;DHT22;36325;51.512;-0.382;2023-02-15T09:21:53;9.90;99.90
30037;DHT22;36325;51.512;-0.382;2023-02-15T09:24:20;9.90;99.90
30037;DHT22;36325;51.512;-0.382;2023-02-15T09:26:49;9.90;99.90
30037;DHT22;36325;51.512;-0.382;2023-02-15T09:29:17;10.00;99.90
30037;DHT22;36325;51.512;-0.382;2023-02-15T09:31:48;10.30;99.90
30037;DHT22;36325;51.512;-0.382;2023-02-15T09:34:18;10.50;99.90
30037;DHT22;36325;51.512;-0.382;2023-02-15T09:36:49;10.60;99.90
30037;DHT22;36325;51.512;-0.382;2023-02-15T09:39:18;10.80;99.90
30037;DHT22;36325;51.512;-0.382;2023-02-15T09:53:10;10.20;99.90
30037;DHT22;36325;51.512;-0.382;2023-02-15T09:58:43;10.20;99.90
30037;DHT22;36325;51.512;-0.382;2023-02-15T10:04:18;10.40;99.90
30037;DHT22;36325;51.512;-0.382;2023-02-15T10:28:42;12.60;99.90
30037;DHT22;36325;51.512;-0.382;2023-02-15T10:31:39;12.50;99.90
30037;DHT22;36325;51.512;-0.382;2023-02-15T10:34:20;12.90;99.90
30037;DHT22;36325;51.512;-0.382;2023-02-15T10:43:04;13.90;99.90
30037;DHT22;36325;51.512;-0.382;2023-02-15T10:45:57;14.30;99.90
30037;DHT22;36325;51.512;-0.382;2023-02-15T10:51:37;14.70;99.90
30037;DHT22;36325;51.512;-0.382;2023-02-15T10:54:16;14.80;99.90
30037;DHT22;36325;51.512;-0.382;2023-02-15T11:02:16;14.70;99.90
30037;DHT22;36325;51.512;-0.382;2023-02-15T11:07:31;14.90;99.90
30037;DHT22;36325;51.512;-0.382;2023-02-15T11:10:23;15.20;99.90
30037;DHT22;36325;51.512;-0.382;2023-02-15T11:12:52;15.40;99.90
30037;DHT22;36325;51.512;-0.382;2023-02-15T11:18:39;15.60;99.90
30037;DHT22;36325;51.512;-0.382;2023-02-15T11:23:46;16.30;99.90
30037;DHT22;36325;51.512;-0.382;2023-02-15T11:26:28;16.30;99.90
30037;DHT22;36325;51.512;-0.382;2023-02-15T11:29:01;15.80;99.90
30037;DHT22;36325;51.512;-0.382;2023-02-15T11:31:42;15.30;99.90
30037;DHT22;36325;51.512;-0.382;2023-02-15T11:34:32;15.80;99.90
30037;DHT22;36325;51.512;-0.382;2023-02-15T11:37:06;15.80;99.90
30037;DHT22;36325;51.512;-0.382;2023-02-15T11:39:38;16.40;99.90
30037;DHT22;36325;51.512;-0.382;2023-02-15T11:42:16;16.80;99.90
30037;DHT22;36325;51.512;-0.382;2023-02-15T11:47:28;17.30;99.90
30037;DHT22;36325;51.512;-0.382;2023-02-15T11:49:57;17.80;99.90
30037;DHT22;36325;51.512;-0.382;2023-02-15T11:52:24;18.20;99.90
30037;DHT22;36325;51.512;-0.382;2023-02-15T11:54:53;18.60;99.90
30037;DHT22;36325;51.512;-0.382;2023-02-15T11:57:31;18.70;99.90
30037;DHT22;36325;51.512;-0.382;2023-02-15T12:00:10;18.80;99.90
30037;DHT22;36325;51.512;-0.382;2023-02-15T12:02:46;19.20;99.90
30037;DHT22;36325;51.512;-0.382;2023-02-15T12:05:19;19.50;99.90
30037;DHT22;36325;51.512;-0.382;2023-02-15T12:07:55;19.90;99.90
30037;DHT22;36325;51.512;-0.382;2023-02-15T12:13:20;20.80;99.90
30037;DHT22;36325;51.512;-0.382;2023-02-15T12:15:54;21.10;99.90
30037;DHT22;36325;51.512;-0.382;2023-02-15T12:21:08;21.50;99.90
30037;DHT22;36325;51.512;-0.382;2023-02-15T12:23:48;21.60;99.90
30037;DHT22;36325;51.512;-0.382;2023-02-15T12:26:43;21.40;99.90
30037;DHT22;36325;51.512;-0.382;2023-02-15T12:29:17;21.30;99.90
30037;DHT22;36325;51.512;-0.382;2023-02-15T12:31:50;21.20;99.90
30037;DHT22;36325;51.512;-0.382;2023-02-15T12:34:23;21.30;99.90
30037;DHT22;36325;51.512;-0.382;2023-02-15T12:36:54;21.20;99.90
30037;DHT22;36325;51.512;-0.382;2023-02-15T12:39:29;21.50;99.90
30037;DHT22;36325;51.512;-0.382;2023-02-15T12:41:59;21.70;99.90
30037;DHT22;36325;51.512;-0.382;2023-02-15T12:44:35;21.90;99.90
30037;DHT22;36325;51.512;-0.382;2023-02-15T12:49:44;22.40;99.90
30037;DHT22;36325;51.512;-0.382;2023-02-15T12:52:31;22.50;99.90
30037;DHT22;36325;51.512;-0.382;2023-02-15T12:55:23;22.70;99.90
30037;DHT22;36325;51.512;-0.382;2023-02-15T12:58:18;22.80;99.90
30037;DHT22;36325;51.512;-0.382;2023-02-15T13:00:46;23.10;99.90
30037;DHT22;36325;51.512;-0.382;2023-02-15T13:03:21;23.10;99.90
30037;DHT22;36325;51.512;-0.382;2023-02-15T13:05:51;23.10;99.90
30037;DHT22;36325;51.512;-0.382;2023-02-15T13:08:22;23.40;99.90
30037;DHT22;36325;51.512;-0.382;2023-02-15T13:11:07;23.40;99.90
30037;DHT22;36325;51.512;-0.382;2023-02-15T13:16:24;23.80;99.90
30037;DHT22;36325;51.512;-0.382;2023-02-15T13:18:53;21.50;99.90
30037;DHT22;36325;51.512;-0.382;2023-02-15T13:21:26;23.80;99.90
30037;DHT22;36325;51.512;-0.382;2023-02-15T13:24:05;23.80;99.90
30037;DHT22;36325;51.512;-0.382;2023-02-15T13:26:34;23.60;99.90
30037;DHT22;36325;51.512;-0.382;2023-02-15T13:29:15;23.90;99.90
30037;DHT22;36325;51.512;-0.382;2023-02-15T13:31:45;24.30;99.90
30037;DHT22;36325;51.512;-0.382;2023-02-15T13:34:26;24.20;99.90
30037;DHT22;36325;51.512;-0.382;2023-02-15T13:39:44;24.50;99.90
30037;DHT22;36325;51.512;-0.382;2023-02-15T13:42:28;24.50;99.90
30037;DHT22;36325;51.512;-0.382;2023-02-15T13:45:08;24.70;99.90
30037;DHT22;36325;51.512;-0.382;2023-02-15T13:48:01;24.70;99.90
30037;DHT22;36325;51.512;-0.382;2023-02-15T13:50:52;24.70;99.90
30037;DHT22;36325;51.512;-0.382;2023-02-15T14:01:31;25.50;99.90
30037;DHT22;36325;51.512;-0.382;2023-02-15T14:15:49;24.50;99.90
30037;DHT22;36325;51.512;-0.382;2023-02-15T14:21:21;24.10;99.90
30037;DHT22;36325;51.512;-0.382;2023-02-15T14:29:35;24.70;99.90
30037;DHT22;36325;51.512;-0.382;2023-02-15T14:32:18;25.00;99.90
30037;DHT22;36325;51.512;-0.382;2023-02-15T14:34:56;25.00;99.90
30037;DHT22;36325;51.512;-0.382;2023-02-15T14:40:16;25.20;99.90
30037;DHT22;36325;51.512;-0.382;2023-02-15T14:50:58;24.30;99.90
30037;DHT22;36325;51.512;-0.382;2023-02-15T14:53:35;24.20;99.90
30037;DHT22;36325;51.512;-0.382;2023-02-15T15:01:33;23.40;99.90
30037;DHT22;36325;51.512;-0.382;2023-02-15T15:04:14;23.50;99.90
30037;DHT22;36325;51.512;-0.382;2023-02-15T15:07:02;23.30;99.90
30037;DHT22;36325;51.512;-0.382;2023-02-15T15:09:31;23.00;99.90
30037;DHT22;36325;51.512;-0.382;2023-02-15T15:14:54;22.40;99.90
30037;DHT22;36325;51.512;-0.382;2023-02-15T15:20:14;21.90;99.90
30037;DHT22;36325;51.512;-0.382;2023-02-15T15:26:23;21.90;99.90
30037;DHT22;36325;51.512;-0.382;2023-02-15T15:28:54;22.10;99.90
30037;DHT22;36325;51.512;-0.382;2023-02-15T15:31:46;21.90;99.90
30037;DHT22;36325;51.512;-0.382;2023-02-15T15:42:48;21.80;99.90
30037;DHT22;36325;51.512;-0.382;2023-02-15T15:45:40;21.60;99.90
30037;DHT22;36325;51.512;-0.382;2023-02-15T15:48:33;21.10;99.90
30037;DHT22;36325;51.512;-0.382;2023-02-15T15:51:18;20.70;99.90
30037;DHT22;36325;51.512;-0.382;2023-02-15T15:53:49;20.40;99.90
30037;DHT22;36325;51.512;-0.382;2023-02-15T15:56:26;20.30;99.90
30037;DHT22;36325;51.512;-0.382;2023-02-15T15:59:12;20.20;99.90
30037;DHT22;36325;51.512;-0.382;2023-02-15T16:01:43;20.00;99.90
30037;DHT22;36325;51.512;-0.382;2023-02-15T16:04:37;19.70;99.90
30037;DHT22;36325;51.512;-0.382;2023-02-15T16:07:23;18.90;99.90
30037;DHT22;36325;51.512;-0.382;2023-02-15T16:09:54;18.40;99.90
30037;DHT22;36325;51.512;-0.382;2023-02-15T16:12:22;18.30;99.90
30037;DHT22;36325;51.512;-0.382;2023-02-15T16:14:50;18.00;99.90
30037;DHT22;36325;51.512;-0.382;2023-02-15T16:17:28;17.60;99.90
30037;DHT22;36325;51.512;-0.382;2023-02-15T16:20:16;17.60;99.90
30037;DHT22;36325;51.512;-0.382;2023-02-15T16:22:47;17.60;99.90
30037;DHT22;36325;51.512;-0.382;2023-02-15T16:28:10;17.00;99.90
30037;DHT22;36325;51.512;-0.382;2023-02-15T16:31:05;17.00;99.90
30037;DHT22;36325;51.512;-0.382;2023-02-15T16:33:37;16.50;99.90
30037;DHT22;36325;51.512;-0.382;2023-02-15T16:36:06;16.10;99.90
30037;DHT22;36325;51.512;-0.382;2023-02-15T16:41:13;15.60;99.90
30037;DHT22;36325;51.512;-0.382;2023-02-15T16:43:44;15.20;99.90
30037;DHT22;36325;51.512;-0.382;2023-02-15T16:46:25;15.10;99.90
30037;DHT22;36325;51.512;-0.382;2023-02-15T16:48:59;15.00;99.90
30037;DHT22;36325;51.512;-0.382;2023-02-15T16:51:30;15.00;99.90
30037;DHT22;36325;51.512;-0.382;2023-02-15T16:54:15;14.80;99.90
30037;DHT22;36325;51.512;-0.382;2023-02-15T16:56:52;14.60;99.90
30037;DHT22;36325;51.512;-0.382;2023-02-15T17:01:57;14.30;99.90
30037;DHT22;36325;51.512;-0.382;2023-02-15T17:04:29;14.10;99.90
30037;DHT22;36325;51.512;-0.382;2023-02-15T17:07:05;14.00;99.90
30037;DHT22;36325;51.512;-0.382;2023-02-15T17:09:34;13.90;99.90
30037;DHT22;36325;51.512;-0.382;2023-02-15T17:12:01;13.80;99.90
30037;DHT22;36325;51.512;-0.382;2023-02-15T17:14:43;13.80;99.90
30037;DHT22;36325;51.512;-0.382;2023-02-15T17:17:14;13.70;99.90
30037;DHT22;36325;51.512;-0.382;2023-02-15T17:19:53;13.60;99.90
30037;DHT22;36325;51.512;-0.382;2023-02-15T17:22:24;13.60;99.90
30037;DHT22;36325;51.512;-0.382;2023-02-15T17:24:59;13.50;99.90
30037;DHT22;36325;51.512;-0.382;2023-02-15T17:27:29;13.50;99.90
30037;DHT22;36325;51.512;-0.382;2023-02-15T17:30:00;13.50;99.90
30037;DHT22;36325;51.512;-0.382;2023-02-15T17:32:30;13.50;99.90
30037;DHT22;36325;51.512;-0.382;2023-02-15T17:35:18;13.30;99.90
30037;DHT22;36325;51.512;-0.382;2023-02-15T17:37:49;13.30;99.90
30037;DHT22;36325;51.512;-0.382;2023-02-15T17:42:48;13.30;99.90
30037;DHT22;36325;51.512;-0.382;2023-02-15T17:45:16;13.20;99.90
30037;DHT22;36325;51.512;-0.382;2023-02-15T17:47:43;13.20;99.90
30037;DHT22;36325;51.512;-0.382;2023-02-15T17:50:23;13.10;99.90
30037;DHT22;36325;51.512;-0.382;2023-02-15T17:52:52;13.10;99.90
30037;DHT22;36325;51.512;-0.382;2023-02-15T17:55:22;13.10;99.90
30037;DHT22;36325;51.512;-0.382;2023-02-15T17:58:16;13.00;99.90
30037;DHT22;36325;51.512;-0.382;2023-02-15T18:00:51;13.00;99.90
30037;DHT22;36325;51.512;-0.382;2023-02-15T18:06:32;12.90;99.90
30037;DHT22;36325;51.512;-0.382;2023-02-15T18:09:21;12.90;99.90
30037;DHT22;36325;51.512;-0.382;2023-02-15T18:12:25;12.80;99.90
30037;DHT22;36325;51.512;-0.382;2023-02-15T18:14:54;12.80;99.90
30037;DHT22;36325;51.512;-0.382;2023-02-15T18:19:53;12.70;99.90
30037;DHT22;36325;51.512;-0.382;2023-02-15T18:22:21;12.70;99.90
30037;DHT22;36325;51.512;-0.382;2023-02-15T18:24:49;12.60;99.90
30037;DHT22;36325;51.512;-0.382;2023-02-15T18:27:16;12.60;99.90
30037;DHT22;36325;51.512;-0.382;2023-02-15T18:29:43;12.60;99.90
30037;DHT22;36325;51.512;-0.382;2023-02-15T18:32:17;12.50;99.90
30037;DHT22;36325;51.512;-0.382;2023-02-15T18:34:46;12.50;99.90
30037;DHT22;36325;51.512;-0.382;2023-02-15T18:37:17;12.40;99.90
30037;DHT22;36325;51.512;-0.382;2023-02-15T18:39:50;12.40;99.90
30037;DHT22;36325;51.512;-0.382;2023-02-15T18:42:23;12.30;99.90
30037;DHT22;36325;51.512;-0.382;2023-02-15T18:44:55;12.30;99.90
30037;DHT22;36325;51.512;-0.382;2023-02-15T18:47:24;12.30;99.90
30037;DHT22;36325;51.512;-0.382;2023-02-15T18:49:51;12.30;99.90
30037;DHT22;36325;51.512;-0.382;2023-02-15T18:52:23;12.20;99.90
30037;DHT22;36325;51.512;-0.382;2023-02-15T18:54:56;12.20;99.90
30037;DHT22;36325;51.512;-0.382;2023-02-15T18:57:24;12.20;99.90
30037;DHT22;36325;51.512;-0.382;2023-02-15T18:59:53;12.20;99.90
30037;DHT22;36325;51.512;-0.382;2023-02-15T19:02:20;11.90;99.90
30037;DHT22;36325;51.512;-0.382;2023-02-15T19:04:48;12.10;99.90
30037;DHT22;36325;51.512;-0.382;2023-02-15T19:07:24;12.00;99.90
30037;DHT22;36325;51.512;-0.382;2023-02-15T19:09:56;12.00;99.90
30037;DHT22;36325;51.512;-0.382;2023-02-15T19:12:25;11.90;99.90
30037;DHT22;36325;51.512;-0.382;2023-02-15T19:14:54;11.80;99.90
30037;DHT22;36325;51.512;-0.382;2023-02-15T19:17:23;11.70;99.90
30037;DHT22;36325;51.512;-0.382;2023-02-15T19:19:51;11.60;99.90
30037;DHT22;36325;51.512;-0.382;2023-02-15T19:22:29;11.50;99.90
30037;DHT22;36325;51.512;-0.382;2023-02-15T19:25:02;11.50;99.90
30037;DHT22;36325;51.512;-0.382;2023-02-15T19:27:33;11.50;99.90
30037;DHT22;36325;51.512;-0.382;2023-02-15T19:30:10;11.40;99.90
30037;DHT22;36325;51.512;-0.382;2023-02-15T19:32:39;11.40;99.90
30037;DHT22;36325;51.512;-0.382;2023-02-15T19:35:16;11.40;99.90
30037;DHT22;36325;51.512;-0.382;2023-02-15T19:37:51;11.40;99.90
30037;DHT22;36325;51.512;-0.382;2023-02-15T19:40:22;11.40;99.90
30037;DHT22;36325;51.512;-0.382;2023-02-15T19:42:51;11.30;99.90
30037;DHT22;36325;51.512;-0.382;2023-02-15T19:45:25;11.30;99.90
30037;DHT22;36325;51.512;-0.382;2023-02-15T19:47:54;11.30;99.90
30037;DHT22;36325;51.512;-0.382;2023-02-15T19:50:25;11.30;99.90